sensor_id;sensor_type;location;lat;lon;timestamp;temperature;humidity
6496;DHT22;3281;47.658;9.166;2024-03-17T00:01:08;8.80;1.00
6496;DHT22;3281;47.658;9.166;2024-03-17T00:03:34;8.80;1.00
6496;DHT22;3281;47.658;9.166;2024-03-17T00:06:02;8.80;1.00
6496;DHT22;3281;47.658;9.166;2024-03-17T00:08:28;8.80;1.00
6496;DHT22;3281;47.658;9.166;2024-03-17T00:10:55;8.80;1.00
6496;DHT22;3281;47.658;9.166;2024-03-17T00:13:21;8.70;1.00
6496;DHT22;3281;47.658;9.166;2024-03-17T00:15:48;8.70;1.00
6496;DHT22;3281;47.658;9.166;2024-03-17T00:18:14;8.70;1.00
6496;DHT22;3281;47.658;9.166;2024-03-17T00:20:41;8.70;1.00
6496;DHT22;3281;47.658;9.166;2024-03-17T00:23:08;8.70;1.00
6496;DHT22;3281;47.658;9.166;2024-03-17T00:25:37;8.60;1.00
6496;DHT22;3281;47.658;9.166;2024-03-17T00:28:04;8.60;1.00
6496;DHT22;3281;47.658;9.166;2024-03-17T00:30:30;8.50;1.00
6496;DHT22;3281;47.658;9.166;2024-03-17T00:32:56;8.50;1.00
6496;DHT22;3281;47.658;9.166;2024-03-17T00:35:24;8.50;1.00
6496;DHT22;3281;47.658;9.166;2024-03-17T00:37:50;8.50;1.00
6496;DHT22;3281;47.658;9.166;2024-03-17T00:40:20;8.60;1.00
6496;DHT22;3281;47.658;9.166;2024-03-17T00:42:47;8.60;1.00
6496;DHT22;3281;47.658;9.166;2024-03-17T00:45:14;8.70;1.00
6496;DHT22;3281;47.658;9.166;2024-03-17T00:47:40;8.80;1.00
6496;DHT22;3281;47.658;9.166;2024-03-17T00:50:08;8.90;1.00
6496;DHT22;3281;47.658;9.166;2024-03-17T00:52:34;8.90;1.00
6496;DHT22;3281;47.658;9.166;2024-03-17T00:55:01;9.00;1.00
6496;DHT22;3281;47.658;9.166;2024-03-17T00:57:28;9.00;1.00
6496;DHT22;3281;47.658;9.166;2024-03-17T00:59:55;9.10;1.00
6496;DHT22;3281;47.658;9.166;2024-03-17T01:02:22;9.20;1.00
6496;DHT22;3281;47.658;9.166;2024-03-17T01:04:47;9.20;1.00
6496;DHT22;3281;47.658;9.166;2024-03-17T01:07:14;9.20;1.00
6496;DHT22;3281;47.658;9.166;2024-03-17T01:09:40;9.30;1.00
6496;DHT22;3281;47.658;9.166;2024-03-17T01:12:07;9.40;1.00
6496;DHT22;3281;47.658;9.166;2024-03-17T01:14:34;9.50;1.00
6496;DHT22;3281;47.658;9.166;2024-03-17T01:17:01;9.50;1.00
6496;DHT22;3281;47.658;9.166;2024-03-17T01:19:27;9.60;1.00
6496;DHT22;3281;47.658;9.166;2024-03-17T01:21:53;9.60;1.00
6496;DHT22;3281;47.658;9.166;2024-03-17T01:24:20;9.60;1.00
6496;DHT22;3281;47.658;9.166;2024-03-17T01:26:46;9.70;1.00
6496;DHT22;3281;47.658;9.166;2024-03-17T01:29:12;9.50;1.00
6496;DHT22;3281;47.658;9.166;2024-03-17T01:31:40;9.50;1.00
6496;DHT22;3281;47.658;9.166;2024-03-17T01:34:06;9.40;1.00
6496;DHT22;3281;47.658;9.166;2024-03-17T01:36:33;9.40;1.00
6496;DHT22;3281;47.658;9.166;2024-03-17T01:38:59;9.40;1.00
6496;DHT22;3281;47.658;9.166;2024-03-17T01:41:27;9.30;1.00
6496;DHT22;3281;47.658;9.166;2024-03-17T01:43:53;9.40;1.00
6496;DHT22;3281;47.658;9.166;2024-03-17T01:46:20;9.40;1.00
6496;DHT22;3281;47.658;9.166;2024-03-17T01:48:47;9.40;1.00
6496;DHT22;3281;47.658;9.166;2024-03-17T01:51:15;9.40;1.00
6496;DHT22;3281;47.658;9.166;2024-03-17T01:53:42;9.30;1.00
6496;DHT22;3281;47.658;9.166;2024-03-17T01:56:10;9.30;1.00
6496;DHT22;3281;47.658;9.166;2024-03-17T01:58:37;9.20;1.00
6496;DHT22;3281;47.658;9.166;2024-03-17T02:01:04;9.20;1.00
6496;DHT22;3281;47.658;9.166;2024-03-17T02:03:29;9.20;1.00
6496;DHT22;3281;47.658;9.166;2024-03-17T02:05:58;9.20;1.00
6496;DHT22;3281;47.658;9.166;2024-03-17T02:08:24;9.10;1.00
6496;DHT22;3281;47.658;9.166;2024-03-17T02:10:53;9.10;1.00
6496;DHT22;3281;47.658;9.166;2024-03-17T02:13:19;9.10;1.00
6496;DHT22;3281;47.658;9.166;2024-03-17T02:15:46;9.10;1.00
6496;DHT22;3281;47.658;9.166;2024-03-17T02:18:12;9.10;1.00
6496;DHT22;3281;47.658;9.166;2024-03-17T02:20:39;9.10;1.00
6496;DHT22;3281;47.658;9.166;2024-03-17T02:23:26;9.10;1.00
6496;DHT22;3281;47.658;9.166;2024-03-17T02:25:53;9.10;1.00
6496;DHT22;3281;47.658;9.166;2024-03-17T02:28:19;9.10;1.00
6496;DHT22;3281;47.658;9.166;2024-03-17T02:30:46;9.10;1.00
6496;DHT22;3281;47.658;9.166;2024-03-17T02:33:11;9.10;1.00
6496;DHT22;3281;47.658;9.166;2024-03-17T02:35:38;9.10;1.00
6496;DHT22;3281;47.658;9.166;2024-03-17T02:38:04;9.00;1.00
6496;DHT22;3281;47.658;9.166;2024-03-17T02:40:34;9.00;1.00
6496;DHT22;3281;47.658;9.166;2024-03-17T02:43:00;9.10;1.00
6496;DHT22;3281;47.658;9.166;2024-03-17T02:45:27;9.10;1.00
6496;DHT22;3281;47.658;9.166;2024-03-17T02:47:53;9.00;1.00
6496;DHT22;3281;47.658;9.166;2024-03-17T02:50:20;9.00;1.00
6496;DHT22;3281;47.658;9.166;2024-03-17T02:52:47;9.00;1.00
6496;DHT22;3281;47.658;9.166;2024-03-17T02:55:14;9.00;1.00
6496;DHT22;3281;47.658;9.166;2024-03-17T02:57:44;9.00;1.00
6496;DHT22;3281;47.658;9.166;2024-03-17T03:00:11;9.00;1.00
6496;DHT22;3281;47.658;9.166;2024-03-17T03:02:38;9.00;1.00
6496;DHT22;3281;47.658;9.166;2024-03-17T03:05:06;8.90;1.00
6496;DHT22;3281;47.658;9.166;2024-03-17T03:07:33;8.90;1.00
6496;DHT22;3281;47.658;9.166;2024-03-17T03:09:59;8.90;1.00
6496;DHT22;3281;47.658;9.166;2024-03-17T03:12:26;8.90;1.00
6496;DHT22;3281;47.658;9.166;2024-03-17T03:14:54;8.90;1.00
6496;DHT22;3281;47.658;9.166;2024-03-17T03:17:21;8.90;1.00
6496;DHT22;3281;47.658;9.166;2024-03-17T03:19:49;8.90;1.00
6496;DHT22;3281;47.658;9.166;2024-03-17T03:22:16;8.80;1.00
6496;DHT22;3281;47.658;9.166;2024-03-17T03:24:43;8.70;1.00
6496;DHT22;3281;47.658;9.166;2024-03-17T03:27:09;8.60;1.00
6496;DHT22;3281;47.658;9.166;2024-03-17T03:29:36;8.60;1.00
6496;DHT22;3281;47.658;9.166;2024-03-17T03:32:05;8.50;1.00
6496;DHT22;3281;47.658;9.166;2024-03-17T03:34:33;8.50;1.00
6496;DHT22;3281;47.658;9.166;2024-03-17T03:36:59;8.50;1.00
6496;DHT22;3281;47.658;9.166;2024-03-17T03:39:26;8.50;1.00
6496;DHT22;3281;47.658;9.166;2024-03-17T03:41:57;8.50;1.00
6496;DHT22;3281;47.658;9.166;2024-03-17T03:44:24;8.50;1.00
6496;DHT22;3281;47.658;9.166;2024-03-17T03:46:50;8.50;1.00
6496;DHT22;3281;47.658;9.166;2024-03-17T03:49:19;8.50;1.00
6496;DHT22;3281;47.658;9.166;2024-03-17T03:51:46;8.60;1.00
6496;DHT22;3281;47.658;9.166;2024-03-17T03:54:13;8.60;1.00
6496;DHT22;3281;47.658;9.166;2024-03-17T03:56:40;8.60;1.00
6496;DHT22;3281;47.658;9.166;2024-03-17T03:59:06;8.60;1.00
6496;DHT22;3281;47.658;9.166;2024-03-17T04:01:33;8.60;1.00
6496;DHT22;3281;47.658;9.166;2024-03-17T04:04:00;8.70;1.00
6496;DHT22;3281;47.658;9.166;2024-03-17T04:06:28;8.60;1.00
6496;DHT22;3281;47.658;9.166;2024-03-17T04:08:55;8.60;1.00
6496;DHT22;3281;47.658;9.166;2024-03-17T04:11:22;8.50;1.00
6496;DHT22;3281;47.658;9.166;2024-03-17T04:13:48;8.50;1.00
6496;DHT22;3281;47.658;9.166;2024-03-17T04:16:15;8.50;1.00
6496;DHT22;3281;47.658;9.166;2024-03-17T04:18:42;8.40;1.00
6496;DHT22;3281;47.658;9.166;2024-03-17T04:21:09;8.50;1.00
6496;DHT22;3281;47.658;9.166;2024-03-17T04:23:38;8.30;1.00
6496;DHT22;3281;47.658;9.166;2024-03-17T04:26:04;8.30;1.00
6496;DHT22;3281;47.658;9.166;2024-03-17T04:28:33;8.20;1.00
6496;DHT22;3281;47.658;9.166;2024-03-17T04:31:04;8.20;1.00
6496;DHT22;3281;47.658;9.166;2024-03-17T04:33:31;8.20;1.00
6496;DHT22;3281;47.658;9.166;2024-03-17T04:35:58;8.00;1.00
6496;DHT22;3281;47.658;9.166;2024-03-17T04:38:25;8.00;1.00
6496;DHT22;3281;47.658;9.166;2024-03-17T04:40:54;8.00;1.00
6496;DHT22;3281;47.658;9.166;2024-03-17T04:43:29;7.90;1.00
6496;DHT22;3281;47.658;9.166;2024-03-17T04:46:01;8.00;1.00
6496;DHT22;3281;47.658;9.166;2024-03-17T04:48:29;8.00;1.00
6496;DHT22;3281;47.658;9.166;2024-03-17T04:50:57;7.90;1.00
6496;DHT22;3281;47.658;9.166;2024-03-17T04:53:24;7.90;1.00
6496;DHT22;3281;47.658;9.166;2024-03-17T04:56:02;7.80;1.00
6496;DHT22;3281;47.658;9.166;2024-03-17T04:58:30;7.80;1.00
6496;DHT22;3281;47.658;9.166;2024-03-17T05:00:57;7.80;1.00
6496;DHT22;3281;47.658;9.166;2024-03-17T05:03:23;7.90;1.00
6496;DHT22;3281;47.658;9.166;2024-03-17T05:05:58;7.90;1.00
6496;DHT22;3281;47.658;9.166;2024-03-17T05:08:26;7.90;1.00
6496;DHT22;3281;47.658;9.166;2024-03-17T05:10:56;7.90;1.00
6496;DHT22;3281;47.658;9.166;2024-03-17T05:13:24;7.90;1.00
6496;DHT22;3281;47.658;9.166;2024-03-17T05:15:51;7.90;1.00
6496;DHT22;3281;47.658;9.166;2024-03-17T05:18:18;7.90;1.00
6496;DHT22;3281;47.658;9.166;2024-03-17T05:20:45;7.90;1.00
6496;DHT22;3281;47.658;9.166;2024-03-17T05:23:12;7.90;1.00
6496;DHT22;3281;47.658;9.166;2024-03-17T05:25:39;7.90;1.00
6496;DHT22;3281;47.658;9.166;2024-03-17T05:28:06;7.80;1.00
6496;DHT22;3281;47.658;9.166;2024-03-17T05:30:35;7.80;1.00
6496;DHT22;3281;47.658;9.166;2024-03-17T05:33:02;7.70;1.00
6496;DHT22;3281;47.658;9.166;2024-03-17T05:35:29;7.70;1.00
6496;DHT22;3281;47.658;9.166;2024-03-17T05:37:56;7.60;1.00
6496;DHT22;3281;47.658;9.166;2024-03-17T05:40:23;7.70;1.00
6496;DHT22;3281;47.658;9.166;2024-03-17T05:42:50;7.70;1.00
6496;DHT22;3281;47.658;9.166;2024-03-17T05:45:17;7.70;1.00
6496;DHT22;3281;47.658;9.166;2024-03-17T05:47:45;7.70;1.00
6496;DHT22;3281;47.658;9.166;2024-03-17T05:50:12;7.70;1.00
6496;DHT22;3281;47.658;9.166;2024-03-17T05:52:39;7.60;1.00
6496;DHT22;3281;47.658;9.166;2024-03-17T05:55:06;7.60;1.00
6496;DHT22;3281;47.658;9.166;2024-03-17T05:57:33;7.70;1.00
6496;DHT22;3281;47.658;9.166;2024-03-17T05:59:59;7.70;1.00
6496;DHT22;3281;47.658;9.166;2024-03-17T06:02:26;7.80;1.00
6496;DHT22;3281;47.658;9.166;2024-03-17T06:04:54;7.80;1.00
6496;DHT22;3281;47.658;9.166;2024-03-17T06:07:21;7.90;1.00
6496;DHT22;3281;47.658;9.166;2024-03-17T06:09:47;7.90;1.00
6496;DHT22;3281;47.658;9.166;2024-03-17T06:12:15;8.00;1.00
6496;DHT22;3281;47.658;9.166;2024-03-17T06:14:41;8.10;1.00
6496;DHT22;3281;47.658;9.166;2024-03-17T06:17:08;8.20;1.00
6496;DHT22;3281;47.658;9.166;2024-03-17T06:19:35;8.30;1.00
6496;DHT22;3281;47.658;9.166;2024-03-17T06:22:03;8.30;1.00
6496;DHT22;3281;47.658;9.166;2024-03-17T06:24:31;8.40;1.00
6496;DHT22;3281;47.658;9.166;2024-03-17T06:26:57;8.50;1.00
6496;DHT22;3281;47.658;9.166;2024-03-17T06:29:24;8.50;1.00
6496;DHT22;3281;47.658;9.166;2024-03-17T06:31:51;8.50;1.00
6496;DHT22;3281;47.658;9.166;2024-03-17T06:34:17;8.60;1.00
6496;DHT22;3281;47.658;9.166;2024-03-17T06:36:44;8.70;1.00
6496;DHT22;3281;47.658;9.166;2024-03-17T06:39:13;8.70;1.00
6496;DHT22;3281;47.658;9.166;2024-03-17T06:41:41;8.60;1.00
6496;DHT22;3281;47.658;9.166;2024-03-17T06:44:08;8.60;1.00
6496;DHT22;3281;47.658;9.166;2024-03-17T06:46:35;8.70;1.00
6496;DHT22;3281;47.658;9.166;2024-03-17T06:49:01;8.70;1.00
6496;DHT22;3281;47.658;9.166;2024-03-17T06:51:28;8.70;1.00
6496;DHT22;3281;47.658;9.166;2024-03-17T06:53:55;8.70;1.00
6496;DHT22;3281;47.658;9.166;2024-03-17T06:56:23;8.80;1.00
6496;DHT22;3281;47.658;9.166;2024-03-17T06:58:50;8.80;1.00
6496;DHT22;3281;47.658;9.166;2024-03-17T07:01:19;8.90;1.00
6496;DHT22;3281;47.658;9.166;2024-03-17T07:03:46;9.10;1.00
6496;DHT22;3281;47.658;9.166;2024-03-17T07:06:12;9.20;1.00
6496;DHT22;3281;47.658;9.166;2024-03-17T07:08:39;9.30;1.00
6496;DHT22;3281;47.658;9.166;2024-03-17T07:11:07;9.50;1.00
6496;DHT22;3281;47.658;9.166;2024-03-17T07:13:37;9.60;1.00
6496;DHT22;3281;47.658;9.166;2024-03-17T07:16:05;9.70;1.00
6496;DHT22;3281;47.658;9.166;2024-03-17T07:18:32;9.80;1.00
6496;DHT22;3281;47.658;9.166;2024-03-17T07:21:00;9.90;1.00
6496;DHT22;3281;47.658;9.166;2024-03-17T07:23:28;9.90;1.00
6496;DHT22;3281;47.658;9.166;2024-03-17T07:25:55;10.00;1.00
6496;DHT22;3281;47.658;9.166;2024-03-17T07:28:23;10.10;1.00
6496;DHT22;3281;47.658;9.166;2024-03-17T07:30:52;10.10;1.00
6496;DHT22;3281;47.658;9.166;2024-03-17T07:33:20;10.10;1.00
6496;DHT22;3281;47.658;9.166;2024-03-17T07:35:48;10.10;1.00
6496;DHT22;3281;47.658;9.166;2024-03-17T07:38:14;10.20;1.00
6496;DHT22;3281;47.658;9.166;2024-03-17T07:40:42;10.10;1.00
6496;DHT22;3281;47.658;9.166;2024-03-17T07:43:08;10.00;1.00
6496;DHT22;3281;47.658;9.166;2024-03-17T07:45:35;9.90;1.00
6496;DHT22;3281;47.658;9.166;2024-03-17T07:48:04;9.80;1.00
6496;DHT22;3281;47.658;9.166;2024-03-17T07:50:31;9.90;1.00
6496;DHT22;3281;47.658;9.166;2024-03-17T07:53:00;9.90;1.00
6496;DHT22;3281;47.658;9.166;2024-03-17T07:55:28;9.70;1.00
6496;DHT22;3281;47.658;9.166;2024-03-17T07:57:56;9.80;1.00
6496;DHT22;3281;47.658;9.166;2024-03-17T08:00:22;9.80;1.00
6496;DHT22;3281;47.658;9.166;2024-03-17T08:02:49;9.90;1.00
6496;DHT22;3281;47.658;9.166;2024-03-17T08:05:17;10.00;1.00
6496;DHT22;3281;47.658;9.166;2024-03-17T08:07:44;10.10;1.00
6496;DHT22;3281;47.658;9.166;2024-03-17T08:10:10;10.10;1.00
6496;DHT22;3281;47.658;9.166;2024-03-17T08:12:37;10.10;1.00
6496;DHT22;3281;47.658;9.166;2024-03-17T08:15:04;10.10;1.00
6496;DHT22;3281;47.658;9.166;2024-03-17T08:17:31;10.30;1.00
6496;DHT22;3281;47.658;9.166;2024-03-17T08:19:58;10.40;1.00
6496;DHT22;3281;47.658;9.166;2024-03-17T08:22:26;10.60;1.00
6496;DHT22;3281;47.658;9.166;2024-03-17T08:24:53;10.70;1.00
6496;DHT22;3281;47.658;9.166;2024-03-17T08:27:19;10.70;1.00
6496;DHT22;3281;47.658;9.166;2024-03-17T08:29:46;10.60;1.00
6496;DHT22;3281;47.658;9.166;2024-03-17T08:32:13;10.70;1.00
6496;DHT22;3281;47.658;9.166;2024-03-17T08:34:40;10.70;1.00
6496;DHT22;3281;47.658;9.166;2024-03-17T08:37:06;10.80;1.00
6496;DHT22;3281;47.658;9.166;2024-03-17T08:39:35;10.90;1.00
6496;DHT22;3281;47.658;9.166;2024-03-17T08:42:02;11.20;1.00
6496;DHT22;3281;47.658;9.166;2024-03-17T08:44:28;11.40;1.00
6496;DHT22;3281;47.658;9.166;2024-03-17T08:46:55;11.60;1.00
6496;DHT22;3281;47.658;9.166;2024-03-17T08:49:22;11.60;1.00
6496;DHT22;3281;47.658;9.166;2024-03-17T08:51:49;11.50;1.00
6496;DHT22;3281;47.658;9.166;2024-03-17T08:54:16;11.40;1.00
6496;DHT22;3281;47.658;9.166;2024-03-17T08:56:44;11.30;1.00
6496;DHT22;3281;47.658;9.166;2024-03-17T08:59:11;11.30;1.00
6496;DHT22;3281;47.658;9.166;2024-03-17T09:01:37;11.30;1.00
6496;DHT22;3281;47.658;9.166;2024-03-17T09:04:04;11.40;1.00
6496;DHT22;3281;47.658;9.166;2024-03-17T09:06:31;11.50;1.00
6496;DHT22;3281;47.658;9.166;2024-03-17T09:08:58;11.80;1.00
6496;DHT22;3281;47.658;9.166;2024-03-17T09:11:24;12.10;1.00
6496;DHT22;3281;47.658;9.166;2024-03-17T09:13:54;12.60;1.00
6496;DHT22;3281;47.658;9.166;2024-03-17T09:16:21;12.80;1.00
6496;DHT22;3281;47.658;9.166;2024-03-17T09:18:50;13.30;1.00
6496;DHT22;3281;47.658;9.166;2024-03-17T09:21:17;13.40;1.00
6496;DHT22;3281;47.658;9.166;2024-03-17T09:23:44;13.50;1.00
6496;DHT22;3281;47.658;9.166;2024-03-17T09:26:11;13.30;1.00
6496;DHT22;3281;47.658;9.166;2024-03-17T09:28:39;13.20;1.00
6496;DHT22;3281;47.658;9.166;2024-03-17T09:31:07;13.20;1.00
6496;DHT22;3281;47.658;9.166;2024-03-17T09:33:35;13.30;1.00
6496;DHT22;3281;47.658;9.166;2024-03-17T09:36:03;13.40;1.00
6496;DHT22;3281;47.658;9.166;2024-03-17T09:38:32;13.60;1.00
6496;DHT22;3281;47.658;9.166;2024-03-17T09:40:59;13.90;1.00
6496;DHT22;3281;47.658;9.166;2024-03-17T09:43:27;14.40;1.00
6496;DHT22;3281;47.658;9.166;2024-03-17T09:45:54;14.60;1.00
6496;DHT22;3281;47.658;9.166;2024-03-17T09:48:24;14.70;1.00
6496;DHT22;3281;47.658;9.166;2024-03-17T09:50:54;14.80;1.00
6496;DHT22;3281;47.658;9.166;2024-03-17T09:53:24;14.90;1.00
6496;DHT22;3281;47.658;9.166;2024-03-17T09:55:52;14.90;1.00
6496;DHT22;3281;47.658;9.166;2024-03-17T09:58:19;14.80;1.00
6496;DHT22;3281;47.658;9.166;2024-03-17T10:00:46;14.90;1.00
6496;DHT22;3281;47.658;9.166;2024-03-17T10:03:43;15.00;1.00
6496;DHT22;3281;47.658;9.166;2024-03-17T10:06:11;15.00;1.00
6496;DHT22;3281;47.658;9.166;2024-03-17T10:08:43;15.30;1.00
6496;DHT22;3281;47.658;9.166;2024-03-17T10:11:10;15.60;1.00
6496;DHT22;3281;47.658;9.166;2024-03-17T10:13:38;15.80;1.00
6496;DHT22;3281;47.658;9.166;2024-03-17T10:16:05;16.00;1.00
6496;DHT22;3281;47.658;9.166;2024-03-17T10:18:32;16.30;1.00
6496;DHT22;3281;47.658;9.166;2024-03-17T10:21:00;16.50;1.00
6496;DHT22;3281;47.658;9.166;2024-03-17T10:23:27;16.90;1.00
6496;DHT22;3281;47.658;9.166;2024-03-17T10:25:54;17.10;1.00
6496;DHT22;3281;47.658;9.166;2024-03-17T10:28:21;17.30;1.00
6496;DHT22;3281;47.658;9.166;2024-03-17T10:30:57;17.60;1.00
6496;DHT22;3281;47.658;9.166;2024-03-17T10:33:25;17.80;1.00
6496;DHT22;3281;47.658;9.166;2024-03-17T10:36:00;17.90;1.00
6496;DHT22;3281;47.658;9.166;2024-03-17T10:38:27;18.10;1.00
6496;DHT22;3281;47.658;9.166;2024-03-17T10:40:54;18.20;1.00
6496;DHT22;3281;47.658;9.166;2024-03-17T10:43:20;18.40;1.00
6496;DHT22;3281;47.658;9.166;2024-03-17T10:45:52;18.50;1.00
6496;DHT22;3281;47.658;9.166;2024-03-17T10:48:20;18.40;1.00
6496;DHT22;3281;47.658;9.166;2024-03-17T10:50:49;18.50;1.00
6496;DHT22;3281;47.658;9.166;2024-03-17T10:53:20;18.40;1.00
6496;DHT22;3281;47.658;9.166;2024-03-17T10:55:59;18.50;1.00
6496;DHT22;3281;47.658;9.166;2024-03-17T10:58:34;18.40;1.00
6496;DHT22;3281;47.658;9.166;2024-03-17T11:01:02;18.30;1.00
6496;DHT22;3281;47.658;9.166;2024-03-17T11:03:31;18.00;1.00
6496;DHT22;3281;47.658;9.166;2024-03-17T11:05:59;17.90;1.00
6496;DHT22;3281;47.658;9.166;2024-03-17T11:08:31;17.70;1.00
6496;DHT22;3281;47.658;9.166;2024-03-17T11:10:58;17.40;1.00
6496;DHT22;3281;47.658;9.166;2024-03-17T11:13:26;17.00;1.00
6496;DHT22;3281;47.658;9.166;2024-03-17T11:15:54;16.90;1.00
6496;DHT22;3281;47.658;9.166;2024-03-17T11:18:36;17.00;1.00
6496;DHT22;3281;47.658;9.166;2024-03-17T11:21:05;16.80;1.00
6496;DHT22;3281;47.658;9.166;2024-03-17T11:23:38;16.80;1.00
6496;DHT22;3281;47.658;9.166;2024-03-17T11:26:06;16.80;1.00
6496;DHT22;3281;47.658;9.166;2024-03-17T11:28:51;16.80;1.00
6496;DHT22;3281;47.658;9.166;2024-03-17T11:31:42;16.40;1.00
6496;DHT22;3281;47.658;9.166;2024-03-17T11:34:31;16.40;1.00
6496;DHT22;3281;47.658;9.166;2024-03-17T11:36:59;16.40;1.00
6496;DHT22;3281;47.658;9.166;2024-03-17T11:39:50;16.30;1.00
6496;DHT22;3281;47.658;9.166;2024-03-17T11:42:18;16.10;1.00
6496;DHT22;3281;47.658;9.166;2024-03-17T11:44:59;16.10;1.00
6496;DHT22;3281;47.658;9.166;2024-03-17T11:47:37;16.00;1.00
6496;DHT22;3281;47.658;9.166;2024-03-17T11:50:06;15.90;1.00
6496;DHT22;3281;47.658;9.166;2024-03-17T11:52:32;15.70;1.00
6496;DHT22;3281;47.658;9.166;2024-03-17T11:55:00;15.70;1.00
6496;DHT22;3281;47.658;9.166;2024-03-17T11:57:26;15.50;1.00
6496;DHT22;3281;47.658;9.166;2024-03-17T11:59:55;15.50;1.00
6496;DHT22;3281;47.658;9.166;2024-03-17T12:02:22;15.30;1.00
6496;DHT22;3281;47.658;9.166;2024-03-17T12:04:51;15.10;1.00
6496;DHT22;3281;47.658;9.166;2024-03-17T12:07:18;15.10;1.00
6496;DHT22;3281;47.658;9.166;2024-03-17T12:09:46;15.10;1.00
6496;DHT22;3281;47.658;9.166;2024-03-17T12:12:17;15.10;1.00
6496;DHT22;3281;47.658;9.166;2024-03-17T12:14:45;15.10;1.00
6496;DHT22;3281;47.658;9.166;2024-03-17T12:17:12;15.00;1.00
6496;DHT22;3281;47.658;9.166;2024-03-17T12:19:40;14.80;1.00
6496;DHT22;3281;47.658;9.166;2024-03-17T12:22:08;14.80;1.00
6496;DHT22;3281;47.658;9.166;2024-03-17T12:24:36;14.70;1.00
6496;DHT22;3281;47.658;9.166;2024-03-17T12:27:05;14.70;99.90
6496;DHT22;3281;47.658;9.166;2024-03-17T12:29:34;14.70;1.00
6496;DHT22;3281;47.658;9.166;2024-03-17T12:32:02;14.60;1.00
6496;DHT22;3281;47.658;9.166;2024-03-17T12:34:31;14.70;1.00
6496;DHT22;3281;47.658;9.166;2024-03-17T12:36:58;14.60;1.00
6496;DHT22;3281;47.658;9.166;2024-03-17T12:39:26;14.70;99.90
6496;DHT22;3281;47.658;9.166;2024-03-17T12:42:06;14.60;99.90
6496;DHT22;3281;47.658;9.166;2024-03-17T12:44:35;14.60;99.90
6496;DHT22;3281;47.658;9.166;2024-03-17T12:47:03;14.60;99.90
6496;DHT22;3281;47.658;9.166;2024-03-17T12:49:32;14.50;99.90
6496;DHT22;3281;47.658;9.166;2024-03-17T12:52:00;14.50;99.90
6496;DHT22;3281;47.658;9.166;2024-03-17T12:54:27;14.50;99.90
6496;DHT22;3281;47.658;9.166;2024-03-17T12:57:04;14.60;99.90
6496;DHT22;3281;47.658;9.166;2024-03-17T12:59:50;14.60;99.90
6496;DHT22;3281;47.658;9.166;2024-03-17T13:02:34;14.70;99.90
6496;DHT22;3281;47.658;9.166;2024-03-17T13:05:22;14.70;99.90
6496;DHT22;3281;47.658;9.166;2024-03-17T13:07:49;14.70;99.90
6496;DHT22;3281;47.658;9.166;2024-03-17T13:10:17;14.70;99.90
6496;DHT22;3281;47.658;9.166;2024-03-17T13:12:44;14.60;99.90
6496;DHT22;3281;47.658;9.166;2024-03-17T13:15:13;14.60;99.90
6496;DHT22;3281;47.658;9.166;2024-03-17T13:17:41;14.50;99.90
6496;DHT22;3281;47.658;9.166;2024-03-17T13:20:12;14.50;99.90
6496;DHT22;3281;47.658;9.166;2024-03-17T13:22:40;14.40;99.90
6496;DHT22;3281;47.658;9.166;2024-03-17T13:25:14;14.50;99.90
6496;DHT22;3281;47.658;9.166;2024-03-17T13:27:41;14.40;99.90
6496;DHT22;3281;47.658;9.166;2024-03-17T13:30:09;14.50;99.90
6496;DHT22;3281;47.658;9.166;2024-03-17T13:32:37;14.50;99.90
6496;DHT22;3281;47.658;9.166;2024-03-17T13:35:05;14.50;99.90
6496;DHT22;3281;47.658;9.166;2024-03-17T13:37:34;14.50;99.90
6496;DHT22;3281;47.658;9.166;2024-03-17T13:40:00;14.40;99.90
6496;DHT22;3281;47.658;9.166;2024-03-17T13:42:30;14.40;99.90
6496;DHT22;3281;47.658;9.166;2024-03-17T13:44:57;14.50;99.90
6496;DHT22;3281;47.658;9.166;2024-03-17T13:47:23;14.40;99.90
6496;DHT22;3281;47.658;9.166;2024-03-17T13:49:51;14.40;99.90
6496;DHT22;3281;47.658;9.166;2024-03-17T13:52:18;14.40;99.90
6496;DHT22;3281;47.658;9.166;2024-03-17T13:54:45;14.40;99.90
6496;DHT22;3281;47.658;9.166;2024-03-17T13:57:11;14.40;1.00
6496;DHT22;3281;47.658;9.166;2024-03-17T13:59:38;14.40;1.00
6496;DHT22;3281;47.658;9.166;2024-03-17T14:02:08;14.40;99.90
6496;DHT22;3281;47.658;9.166;2024-03-17T14:04:38;14.50;1.00
6496;DHT22;3281;47.658;9.166;2024-03-17T14:07:06;14.40;99.90
6496;DHT22;3281;47.658;9.166;2024-03-17T14:09:33;14.40;1.00
6496;DHT22;3281;47.658;9.166;2024-03-17T14:11:59;14.40;1.00
6496;DHT22;3281;47.658;9.166;2024-03-17T14:14:26;14.40;99.90
6496;DHT22;3281;47.658;9.166;2024-03-17T14:16:53;14.40;99.90
6496;DHT22;3281;47.658;9.166;2024-03-17T14:19:20;14.80;1.00
6496;DHT22;3281;47.658;9.166;2024-03-17T14:21:47;14.50;1.00
6496;DHT22;3281;47.658;9.166;2024-03-17T14:24:15;14.60;1.00
6496;DHT22;3281;47.658;9.166;2024-03-17T14:26:41;14.70;1.00
6496;DHT22;3281;47.658;9.166;2024-03-17T14:29:08;14.70;1.00
6496;DHT22;3281;47.658;9.166;2024-03-17T14:31:35;14.70;1.00
6496;DHT22;3281;47.658;9.166;2024-03-17T14:34:03;14.60;1.00
6496;DHT22;3281;47.658;9.166;2024-03-17T14:36:31;14.60;1.00
6496;DHT22;3281;47.658;9.166;2024-03-17T14:38:58;14.70;1.00
6496;DHT22;3281;47.658;9.166;2024-03-17T14:41:29;14.80;1.00
6496;DHT22;3281;47.658;9.166;2024-03-17T14:43:56;14.80;1.00
6496;DHT22;3281;47.658;9.166;2024-03-17T14:46:23;14.90;1.00
6496;DHT22;3281;47.658;9.166;2024-03-17T14:48:50;14.90;1.00
6496;DHT22;3281;47.658;9.166;2024-03-17T14:51:17;15.20;1.00
6496;DHT22;3281;47.658;9.166;2024-03-17T14:53:44;15.00;99.90
6496;DHT22;3281;47.658;9.166;2024-03-17T14:56:15;15.00;99.90
6496;DHT22;3281;47.658;9.166;2024-03-17T14:58:44;15.00;99.90
6496;DHT22;3281;47.658;9.166;2024-03-17T15:01:11;15.00;99.90
6496;DHT22;3281;47.658;9.166;2024-03-17T15:03:39;14.90;99.90
6496;DHT22;3281;47.658;9.166;2024-03-17T15:06:09;14.70;99.90
6496;DHT22;3281;47.658;9.166;2024-03-17T15:08:36;14.60;99.90
6496;DHT22;3281;47.658;9.166;2024-03-17T15:11:03;14.50;99.90
6496;DHT22;3281;47.658;9.166;2024-03-17T15:13:30;14.40;99.90
6496;DHT22;3281;47.658;9.166;2024-03-17T15:15:58;14.30;99.90
6496;DHT22;3281;47.658;9.166;2024-03-17T15:18:24;14.30;99.90
6496;DHT22;3281;47.658;9.166;2024-03-17T15:20:52;14.20;99.90
6496;DHT22;3281;47.658;9.166;2024-03-17T15:23:20;14.10;99.90
6496;DHT22;3281;47.658;9.166;2024-03-17T15:25:47;14.00;99.90
6496;DHT22;3281;47.658;9.166;2024-03-17T15:28:13;13.80;99.90
6496;DHT22;3281;47.658;9.166;2024-03-17T15:30:39;13.70;99.90
6496;DHT22;3281;47.658;9.166;2024-03-17T15:33:07;13.60;99.90
6496;DHT22;3281;47.658;9.166;2024-03-17T15:35:35;13.50;99.90
6496;DHT22;3281;47.658;9.166;2024-03-17T15:38:02;13.30;99.90
6496;DHT22;3281;47.658;9.166;2024-03-17T15:40:29;13.20;99.90
6496;DHT22;3281;47.658;9.166;2024-03-17T15:42:56;13.10;99.90
6496;DHT22;3281;47.658;9.166;2024-03-17T15:45:24;13.00;99.90
6496;DHT22;3281;47.658;9.166;2024-03-17T15:47:52;13.00;99.90
6496;DHT22;3281;47.658;9.166;2024-03-17T15:50:20;12.90;99.90
6496;DHT22;3281;47.658;9.166;2024-03-17T15:52:47;12.80;99.90
6496;DHT22;3281;47.658;9.166;2024-03-17T15:55:14;12.70;99.90
6496;DHT22;3281;47.658;9.166;2024-03-17T15:57:41;12.60;99.90
6496;DHT22;3281;47.658;9.166;2024-03-17T16:00:09;12.60;99.90
6496;DHT22;3281;47.658;9.166;2024-03-17T16:02:37;12.50;99.90
6496;DHT22;3281;47.658;9.166;2024-03-17T16:05:05;12.50;99.90
6496;DHT22;3281;47.658;9.166;2024-03-17T16:07:37;12.40;99.90
6496;DHT22;3281;47.658;9.166;2024-03-17T16:10:05;12.40;99.90
6496;DHT22;3281;47.658;9.166;2024-03-17T16:12:34;12.30;99.90
6496;DHT22;3281;47.658;9.166;2024-03-17T16:15:01;12.30;99.90
6496;DHT22;3281;47.658;9.166;2024-03-17T16:17:29;12.30;99.90
6496;DHT22;3281;47.658;9.166;2024-03-17T16:19:56;12.30;99.90
6496;DHT22;3281;47.658;9.166;2024-03-17T16:22:26;12.20;99.90
6496;DHT22;3281;47.658;9.166;2024-03-17T16:24:54;12.10;99.90
6496;DHT22;3281;47.658;9.166;2024-03-17T16:27:22;12.10;99.90